Time;durP1;ratioP1;P1;durP2;ratioP2;P2;SDS_P1;SDS_P2;PMS_P1;PMS_P2;Temp;Humidity;BMP_temperature;BMP_pressure;BME280_temperature;BME280_humidity;BME280_pressure;Samples;Min_cycle;Max_cycle;Signal;HPM_P1;HPM_P2
2023/08/22 00:00:23;;;;;;;3.40;2.20;;;;;;;33.75;46.59;99564.94;5094137;28;20077;-67
2023/08/22 00:02:48;;;;;;;3.38;1.95;;;;;;;33.74;46.65;99561.38;5093936;28;20155;-68
2023/08/22 00:05:14;;;;;;;3.78;2.28;;;;;;;33.74;46.55;99566.78;5094090;28;20024;-68
2023/08/22 00:07:41;;;;;;;3.20;2.20;;;;;;;33.73;46.72;99570.50;5094328;28;20028;-68
2023/08/22 00:10:07;;;;;;;2.33;1.77;;;;;;;33.72;46.81;99566.13;5094261;28;20031;-68
2023/08/22 00:12:33;;;;;;;3.10;2.10;;;;;;;33.73;46.90;99570.50;5094064;28;20566;-68
2023/08/22 00:14:58;;;;;;;2.50;1.80;;;;;;;33.72;46.67;99558.00;5093448;28;20021;-67
2023/08/22 00:17:24;;;;;;;2.70;1.88;;;;;;;33.74;46.72;99566.78;5093975;28;20020;-68
2023/08/22 00:19:50;;;;;;;2.30;1.70;;;;;;;33.73;46.96;99565.09;5094032;28;20035;-67
2023/08/22 00:22:16;;;;;;;2.95;2.00;;;;;;;33.72;46.76;99557.16;5093884;28;20098;-67
2023/08/22 00:24:41;;;;;;;2.92;1.90;;;;;;;33.71;46.60;99553.59;5092420;28;20471;-67
2023/08/22 00:27:07;;;;;;;3.05;2.00;;;;;;;33.71;46.91;99555.47;5093795;28;20080;-68
2023/08/22 00:29:32;;;;;;;3.67;1.90;;;;;;;33.72;46.63;99546.31;5093588;28;20028;-67
2023/08/22 00:31:58;;;;;;;3.08;2.10;;;;;;;33.71;46.97;99550.06;5093734;28;20392;-68
2023/08/22 00:34:24;;;;;;;4.22;2.08;;;;;;;33.70;46.92;99557.31;5093741;28;20375;-68
2023/08/22 00:36:50;;;;;;;3.28;1.90;;;;;;;33.70;46.66;99554.59;5093653;28;20020;-68
2023/08/22 00:39:15;;;;;;;2.13;1.73;;;;;;;33.71;46.89;99558.16;5093577;28;20036;-67
2023/08/22 00:41:42;;;;;;;3.30;2.08;;;;;;;33.71;46.52;99561.69;5093435;28;20035;-67
2023/08/22 00:44:07;;;;;;;3.13;1.88;;;;;;;33.70;46.45;99564.59;5093223;28;20016;-68
2023/08/22 00:46:33;;;;;;;2.78;2.00;;;;;;;33.69;46.81;99563.75;5092313;28;20080;-67
2023/08/22 00:48:58;;;;;;;2.58;2.10;;;;;;;33.69;46.86;99557.50;5093440;28;20046;-70
2023/08/22 00:51:24;;;;;;;2.85;2.00;;;;;;;33.70;46.51;99562.72;5093296;28;20031;-67
2023/08/22 00:53:49;;;;;;;3.20;2.13;;;;;;;33.69;46.55;99558.34;5093293;28;20016;-68
2023/08/22 00:56:15;;;;;;;2.90;1.92;;;;;;;33.70;46.73;99559.19;5093210;28;20031;-70
2023/08/22 00:58:41;;;;;;;3.15;1.67;;;;;;;33.69;46.64;99558.34;5092927;28;20024;-69
2023/08/22 01:01:08;;;;;;;3.83;1.88;;;;;;;33.66;46.87;99550.59;5092947;28;20067;-68
2023/08/22 01:03:34;;;;;;;3.08;2.05;;;;;;;33.66;46.69;99553.28;5093281;28;20449;-68
2023/08/22 01:06:10;;;;;;;2.47;1.85;;;;;;;33.66;46.75;99553.28;5093209;28;20012;-67
2023/08/22 01:08:39;;;;;;;2.55;1.98;;;;;;;33.65;46.50;99546.19;5093029;28;20024;-68
2023/08/22 01:11:19;;;;;;;2.67;1.90;;;;;;;33.65;46.90;99546.19;5092670;28;20031;-68
2023/08/22 01:13:49;;;;;;;3.00;1.88;;;;;;;33.65;46.52;99546.19;5092750;28;20122;-67
2023/08/22 01:16:15;;;;;;;3.53;2.05;;;;;;;33.64;46.79;99544.50;5092097;28;20027;-68
2023/08/22 01:18:41;;;;;;;3.08;2.05;;;;;;;33.64;46.65;99547.19;5092749;28;20388;-68
2023/08/22 01:21:07;;;;;;;3.03;1.92;;;;;;;33.64;46.69;99547.19;5092955;28;20513;-68
2023/08/22 01:23:32;;;;;;;3.08;1.98;;;;;;;33.64;46.54;99543.66;5092872;28;20171;-68
2023/08/22 01:26:01;;;;;;;3.33;1.90;;;;;;;33.63;46.86;99545.53;5092433;28;20020;-68
2023/08/22 01:28:36;;;;;;;2.60;1.75;;;;;;;33.63;46.66;99547.41;5092689;28;20028;-68
2023/08/22 01:31:36;;;;;;;2.50;1.75;;;;;;;33.63;46.82;99552.81;5092671;28;20028;-67
2023/08/22 01:34:04;;;;;;;3.22;1.92;;;;;;;33.63;46.54;99544.69;5084242;28;20032;-68
2023/08/22 01:36:30;;;;;;;3.15;2.22;;;;;;;33.63;46.88;99542.81;5092572;28;20020;-68
2023/08/22 01:38:56;;;;;;;2.90;2.05;;;;;;;33.63;46.66;99552.81;5092419;28;20016;-68
2023/08/22 01:41:22;;;;;;;3.08;2.15;;;;;;;33.62;46.60;99551.94;5090672;28;20411;-68
2023/08/22 01:43:49;;;;;;;3.28;2.00;;;;;;;33.61;46.48;99556.50;5092401;28;20026;-68
2023/08/22 01:46:15;;;;;;;2.67;1.83;;;;;;;33.61;46.66;99561.09;5092363;28;20047;-67
2023/08/22 01:48:40;;;;;;;2.72;1.70;;;;;;;33.61;46.65;99556.50;5091041;28;20472;-68
2023/08/22 01:51:06;;;;;;;3.35;1.90;;;;;;;33.61;46.73;99561.09;5092437;28;20032;-68
2023/08/22 01:53:31;;;;;;;2.55;1.80;;;;;;;33.60;46.74;99564.81;5092300;28;20028;-69
2023/08/22 01:56:00;;;;;;;3.20;1.80;;;;;;;33.59;46.60;99563.09;5091907;28;20074;-68
2023/08/22 01:58:26;;;;;;;3.88;2.00;;;;;;;33.60;46.71;99567.53;5092260;28;20051;-68
2023/08/22 02:00:52;;;;;;;3.28;1.90;;;;;;;33.59;46.54;99563.09;5092108;28;20063;-68
2023/08/22 02:03:17;;;;;;;2.30;1.88;;;;;;;33.59;46.66;99563.09;5092189;28;20141;-68
2023/08/22 02:05:42;;;;;;;2.53;1.75;;;;;;;33.58;46.86;99566.84;5092067;28;20032;-68
2023/08/22 02:08:08;;;;;;;2.88;1.85;;;;;;;33.57;46.52;99565.16;5092378;28;20031;-68
2023/08/22 02:10:33;;;;;;;3.30;2.10;;;;;;;33.56;46.40;99579.72;5091705;28;20032;-68
2023/08/22 02:12:59;;;;;;;2.97;2.00;;;;;;;33.56;46.50;99574.28;5092191;28;20104;-68
2023/08/22 02:15:24;;;;;;;3.10;1.95;;;;;;;33.55;46.62;99578.03;5092224;28;20051;-67
2023/08/22 02:17:51;;;;;;;2.65;1.85;;;;;;;33.55;46.61;99583.44;5091926;28;20399;-68
2023/08/22 02:20:17;;;;;;;2.38;1.85;;;;;;;33.53;46.70;99577.34;5092128;28;20387;-68
2023/08/22 02:22:43;;;;;;;3.05;1.77;;;;;;;33.53;46.47;99580.03;5091901;28;20028;-67
2023/08/22 02:25:08;;;;;;;2.95;1.80;;;;;;;33.53;46.52;99580.91;5091652;28;20034;-68
2023/08/22 02:27:34;;;;;;;3.47;2.20;;;;;;;33.52;46.72;99581.91;5092809;28;20479;-67
2023/08/22 02:30:00;;;;;;;2.47;1.83;;;;;;;33.51;46.60;99579.38;5096014;28;20035;-67
2023/08/22 02:32:25;;;;;;;2.53;1.70;;;;;;;33.51;46.83;99579.38;5096091;28;20086;-68
2023/08/22 02:34:51;;;;;;;2.88;1.92;;;;;;;33.51;46.53;99572.13;5095916;28;20026;-68
2023/08/22 02:37:16;;;;;;;2.17;1.60;;;;;;;33.51;46.81;99580.25;5096083;28;20020;-69
2023/08/22 02:39:41;;;;;;;2.92;1.92;;;;;;;33.50;46.64;99581.19;5095560;28;20109;-68
2023/08/22 02:42:07;;;;;;;3.35;1.98;;;;;;;33.50;46.56;99585.78;5095866;28;20039;-69
2023/08/22 02:44:32;;;;;;;2.53;1.60;;;;;;;33.48;46.48;99583.25;5095537;28;20031;-67
2023/08/22 02:46:58;;;;;;;3.35;1.90;;;;;;;33.47;46.69;99581.56;5095579;28;20020;-67
2023/08/22 02:49:23;;;;;;;2.97;1.80;;;;;;;33.46;46.58;99575.28;5095922;28;20083;-67
2023/08/22 02:51:48;;;;;;;3.08;2.03;;;;;;;33.45;46.39;99583.59;5095733;28;20028;-68
2023/08/22 02:54:14;;;;;;;3.35;1.60;;;;;;;33.45;46.50;99579.03;5095028;28;20078;-68
2023/08/22 02:56:39;;;;;;;3.10;1.80;;;;;;;33.44;46.59;99577.34;5095590;28;20060;-68
2023/08/22 02:59:05;;;;;;;2.47;2.00;;;;;;;33.44;46.56;99581.91;5095555;28;20028;-69
2023/08/22 03:01:30;;;;;;;3.40;1.85;;;;;;;33.42;46.58;99568.56;5095238;28;20040;-68
2023/08/22 03:03:56;;;;;;;3.95;1.90;;;;;;;33.44;46.55;99574.63;5095458;28;20101;-69
2023/08/22 03:06:22;;;;;;;2.78;1.67;;;;;;;33.42;46.77;99571.28;5095308;28;20486;-68
2023/08/22 03:08:48;;;;;;;2.50;1.67;;;;;;;33.41;46.58;99572.25;5094962;28;20035;-67
2023/08/22 03:11:13;;;;;;;3.05;1.85;;;;;;;33.40;46.67;99577.88;5095230;28;20445;-69
2023/08/22 03:13:39;;;;;;;3.28;1.95;;;;;;;33.38;46.70;99572.63;5095016;28;20103;-68
2023/08/22 03:16:04;;;;;;;2.85;1.90;;;;;;;33.37;46.60;99576.34;5095301;28;20035;-66
2023/08/22 03:18:30;;;;;;;2.55;1.60;;;;;;;33.39;46.41;99585.13;5095375;28;20150;-68
2023/08/22 03:20:58;;;;;;;3.13;1.90;;;;;;;33.38;46.52;99588.84;5094959;28;20476;-67
2023/08/22 03:23:24;;;;;;;3.03;1.70;;;;;;;33.38;46.64;99582.59;5094788;28;20020;-68
2023/08/22 03:26:10;;;;;;;2.88;1.67;;;;;;;33.34;46.95;99590.22;5095002;28;20464;-67
2023/08/22 03:28:35;;;;;;;;;;;;;;;33.33;46.73;99580.41;5095365;28;20111;-66
2023/08/22 03:31:05;;;;;;;3.27;1.63;;;;;;;33.33;46.71;99592.09;5094845;28;19995;-68
2023/08/22 03:33:31;;;;;;;3.88;1.80;;;;;;;33.31;46.75;99583.28;5094725;28;20030;-66
2023/08/22 03:35:57;;;;;;;2.72;1.50;;;;;;;33.32;46.58;99586.84;5094560;28;20113;-68
2023/08/22 03:38:24;;;;;;;3.33;1.75;;;;;;;33.32;46.79;99594.97;5094110;28;20129;-66
2023/08/22 03:40:51;;;;;;;2.53;1.65;;;;;;;33.29;46.52;99584.47;5094770;28;20480;-68
2023/08/22 03:43:18;;;;;;;2.83;1.58;;;;;;;33.28;46.57;99589.06;5094737;28;20028;-68
2023/08/22 03:45:44;;;;;;;2.35;1.73;;;;;;;33.27;46.53;99586.50;5094645;28;20028;-68
2023/08/22 03:48:10;;;;;;;2.67;1.67;;;;;;;33.27;46.59;99591.91;5094768;28;20035;-68
2023/08/22 03:50:35;;;;;;;3.58;2.03;;;;;;;33.25;46.50;99591.25;5094212;28;20032;-68
2023/08/22 03:53:00;;;;;;;2.13;1.50;;;;;;;33.22;46.67;99590.56;5094538;28;20055;-68
2023/08/22 03:55:26;;;;;;;3.10;1.85;;;;;;;33.24;46.68;99595.81;5094650;28;20027;-68
2023/08/22 03:57:52;;;;;;;3.30;1.58;;;;;;;33.20;46.75;99608.84;5094567;28;20106;-68
2023/08/22 04:00:17;;;;;;;3.05;1.85;;;;;;;33.20;46.70;99608.84;5094561;28;20031;-69
2023/08/22 04:02:43;;;;;;;3.58;2.00;;;;;;;33.19;46.69;99609.84;5094195;28;20056;-68
2023/08/22 04:05:08;;;;;;;3.30;1.70;;;;;;;33.19;46.78;99612.56;5093895;28;20032;-68
2023/08/22 04:07:34;;;;;;;2.53;1.80;;;;;;;33.19;46.79;99622.50;5094281;28;20081;-68
2023/08/22 04:09:59;;;;;;;3.65;1.75;;;;;;;33.18;46.74;99612.72;5094229;28;20437;-68
2023/08/22 04:12:24;;;;;;;2.70;1.65;;;;;;;33.17;46.76;99613.75;5093980;28;20383;-68
2023/08/22 04:14:50;;;;;;;2.60;1.75;;;;;;;33.17;46.63;99611.84;5093939;28;20028;-68
2023/08/22 04:17:15;;;;;;;1.73;1.33;;;;;;;33.15;46.94;99627.41;5094076;28;20024;-68
2023/08/22 04:19:41;;;;;;;2.45;1.65;;;;;;;33.14;46.72;99631.16;5093562;28;20035;-69
2023/08/22 04:22:07;;;;;;;2.03;1.30;;;;;;;33.12;46.91;99627.75;5094027;28;20028;-68
2023/08/22 04:24:32;;;;;;;2.70;1.65;;;;;;;33.11;46.51;99631.47;5093702;28;20039;-67
2023/08/22 04:26:58;;;;;;;2.00;1.35;;;;;;;33.10;46.84;99624.38;5093735;28;20069;-68
2023/08/22 04:29:23;;;;;;;2.53;1.40;;;;;;;33.11;46.88;99641.47;5093813;28;20391;-68
2023/08/22 04:31:49;;;;;;;2.92;1.50;;;;;;;33.09;46.72;99644.31;5093908;28;20388;-68
2023/08/22 04:34:14;;;;;;;2.53;1.38;;;;;;;33.05;46.69;99637.56;5093418;28;20020;-72
2023/08/22 04:36:40;;;;;;;2.88;1.50;;;;;;;33.06;46.59;99644.66;5093804;28;20020;-67
2023/08/22 04:39:05;;;;;;;3.30;1.73;;;;;;;33.05;46.82;99637.56;5093718;28;20048;-68
2023/08/22 04:41:31;;;;;;;2.47;1.55;;;;;;;33.04;46.77;99646.69;5093659;28;20046;-67
2023/08/22 04:43:56;;;;;;;2.70;1.45;;;;;;;33.04;46.68;99642.13;5093623;28;20024;-67
2023/08/22 04:46:22;;;;;;;2.65;1.48;;;;;;;33.03;46.84;99650.41;5093569;28;20430;-68
2023/08/22 04:48:47;;;;;;;2.88;1.50;;;;;;;33.04;46.63;99649.38;5093193;28;20031;-67
2023/08/22 04:51:13;;;;;;;2.85;1.60;;;;;;;33.03;46.83;99655.81;5092354;28;20127;-68
2023/08/22 04:53:38;;;;;;;3.58;1.77;;;;;;;33.01;46.73;99657.84;5093241;28;20392;-68
2023/08/22 04:56:04;;;;;;;2.45;1.45;;;;;;;33.01;46.65;99657.84;5093490;28;20032;-68
2023/08/22 04:58:29;;;;;;;2.17;1.33;;;;;;;33.00;46.67;99661.53;5093138;28;20028;-68
2023/08/22 05:00:55;;;;;;;3.22;1.80;;;;;;;32.99;46.63;99654.44;5092992;28;20044;-67
2023/08/22 05:03:21;;;;;;;1.85;1.30;;;;;;;32.97;46.70;99657.31;5092829;28;20489;-68
2023/08/22 05:05:47;;;;;;;2.40;1.60;;;;;;;32.98;46.71;99658.16;5093177;28;20050;-67
2023/08/22 05:08:12;;;;;;;2.70;1.60;;;;;;;32.98;46.66;99658.16;5093044;28;20464;-67
2023/08/22 05:10:38;;;;;;;2.40;1.48;;;;;;;32.95;46.63;99659.31;5093062;28;20039;-68
2023/08/22 05:13:03;;;;;;;2.08;1.40;;;;;;;32.95;46.90;99665.59;5092769;28;20039;-68
2023/08/22 05:15:29;;;;;;;2.47;1.33;;;;;;;32.93;46.76;99662.19;5093091;28;20024;-67
2023/08/22 05:17:54;;;;;;;2.15;1.33;;;;;;;32.94;46.59;99668.44;5092651;28;20028;-68
2023/08/22 05:20:20;;;;;;;2.15;1.15;;;;;;;32.93;46.71;99666.75;5092965;28;20055;-67
2023/08/22 05:22:46;;;;;;;3.10;1.40;;;;;;;32.92;46.69;99665.91;5092847;28;20028;-68
2023/08/22 05:25:12;;;;;;;1.85;1.27;;;;;;;32.92;46.87;99660.50;5092822;28;20031;-67
2023/08/22 05:27:37;;;;;;;2.28;1.20;;;;;;;32.93;46.72;99670.28;5092800;28;20055;-67
2023/08/22 05:30:06;;;;;;;2.28;1.30;;;;;;;32.90;46.76;99659.84;5092846;28;20103;-68
2023/08/22 05:32:31;;;;;;;1.85;1.30;;;;;;;32.91;46.82;99664.22;5092186;28;20028;-68
2023/08/22 05:34:57;;;;;;;2.38;1.30;;;;;;;32.91;46.54;99668.78;5092690;28;20028;-67
2023/08/22 05:37:22;;;;;;;2.20;1.40;;;;;;;32.90;46.63;99670.66;5092618;28;20020;-68
2023/08/22 05:39:47;;;;;;;1.90;1.30;;;;;;;32.90;46.54;99672.50;5092622;28;20069;-68
2023/08/22 05:42:13;;;;;;;2.35;1.40;;;;;;;32.89;46.75;99677.06;5092447;28;20115;-68
2023/08/22 05:44:38;;;;;;;3.03;1.45;;;;;;;32.87;46.66;99668.25;5092537;28;20035;-68
2023/08/22 05:47:04;;;;;;;2.30;1.40;;;;;;;32.87;46.65;99681.78;5092079;28;20016;-68
2023/08/22 05:49:30;;;;;;;2.00;1.35;;;;;;;32.85;46.46;99673.00;5092532;28;20040;-68
2023/08/22 05:52:05;;;;;;;2.60;1.50;;;;;;;32.85;46.62;99678.41;5092268;28;20518;-67
2023/08/22 05:54:31;;;;;;;2.33;1.45;;;;;;;32.83;46.61;99688.53;5092423;28;20051;-67
2023/08/22 05:56:57;;;;;;;1.80;1.05;;;;;;;32.82;46.59;99692.22;5092537;28;20028;-68
2023/08/22 05:59:23;;;;;;;2.55;1.40;;;;;;;32.83;46.79;99693.09;5092268;28;20031;-68
2023/08/22 06:01:49;;;;;;;2.83;1.30;;;;;;;32.81;46.81;99687.84;5091469;28;20047;-68
2023/08/22 06:04:16;;;;;;;2.30;1.45;;;;;;;32.81;46.74;99690.56;5092323;28;20099;-67
2023/08/22 06:06:41;;;;;;;1.75;1.30;;;;;;;32.80;46.72;99695.13;5092349;28;20032;-67
2023/08/22 06:09:06;;;;;;;2.28;1.35;;;;;;;32.81;46.74;99695.97;5092353;28;20400;-68
2023/08/22 06:11:32;;;;;;;1.95;1.38;;;;;;;32.82;46.66;99700.34;5092151;28;20081;-68
2023/08/22 06:13:57;;;;;;;2.65;1.60;;;;;;;32.81;46.63;99704.06;5091945;28;20039;-68
2023/08/22 06:16:23;;;;;;;3.25;1.67;;;;;;;32.82;46.59;99708.44;5091816;28;20024;-68
2023/08/22 06:18:48;;;;;;;2.55;1.38;;;;;;;32.84;46.76;99711.00;5092084;28;20036;-67
2023/08/22 06:21:13;;;;;;;2.58;1.58;;;;;;;32.84;46.74;99711.84;5092060;28;20642;-68
2023/08/22 06:23:39;;;;;;;2.10;1.30;;;;;;;32.84;46.51;99711.84;5091844;28;20077;-67
2023/08/22 06:26:04;;;;;;;2.10;1.27;;;;;;;32.83;46.58;99706.59;5092052;28;20108;-68
2023/08/22 06:28:30;;;;;;;3.00;1.42;;;;;;;32.83;46.65;99720.13;5092087;28;20112;-68
2023/08/22 06:31:03;;;;;;;2.60;1.55;;;;;;;32.84;46.71;99721.78;5091721;28;20020;-67
2023/08/22 06:33:29;;;;;;;1.63;1.30;;;;;;;32.86;46.61;99720.63;5092102;28;20108;-70
2023/08/22 06:35:54;;;;;;;3.10;1.60;;;;;;;32.86;46.68;99726.03;5091892;28;20107;-67
2023/08/22 06:38:20;;;;;;;2.35;1.40;;;;;;;32.85;46.67;99726.19;5091887;28;20028;-67
2023/08/22 06:40:45;;;;;;;2.22;1.30;;;;;;;32.85;46.64;99728.88;5092113;28;20028;-67
2023/08/22 06:43:11;;;;;;;1.98;1.48;;;;;;;32.86;46.69;99719.75;5091740;28;20024;-68
2023/08/22 06:45:36;;;;;;;2.13;1.25;;;;;;;32.86;46.60;99736.84;5091590;28;20451;-69
2023/08/22 06:48:02;;;;;;;2.25;1.40;;;;;;;32.86;46.63;99736.84;5091829;28;20023;-68
2023/08/22 06:50:27;;;;;;;2.15;1.30;;;;;;;32.86;46.50;99731.44;5091771;28;20029;-67
2023/08/22 06:52:53;;;;;;;3.15;1.45;;;;;;;32.88;46.67;99736.69;5091778;28;20028;-68
2023/08/22 06:55:18;;;;;;;2.38;1.33;;;;;;;32.87;46.56;99741.22;5091660;28;20103;-68
2023/08/22 06:57:43;;;;;;;3.78;1.63;;;;;;;32.87;46.35;99738.53;5091853;28;20020;-68
2023/08/22 07:00:16;;;;;;;2.60;1.40;;;;;;;32.89;46.58;99747.31;5091632;28;20016;-68
2023/08/22 07:02:42;;;;;;;2.30;1.40;;;;;;;32.89;46.48;99747.31;5091476;28;20134;-67
2023/08/22 07:05:09;;;;;;;3.00;1.60;;;;;;;32.90;46.52;99754.41;5091777;28;20157;-68
2023/08/22 07:07:35;;;;;;;2.50;1.30;;;;;;;32.90;46.36;99754.41;5091621;28;20073;-68
2023/08/22 07:10:01;;;;;;;1.83;1.10;;;;;;;32.90;46.44;99754.41;5090435;28;20364;-69
2023/08/22 07:12:26;;;;;;;2.33;1.30;;;;;;;32.90;46.58;99749.00;5091469;28;20031;-68
2023/08/22 07:14:51;;;;;;;3.00;1.40;;;;;;;32.89;46.45;99747.31;5093845;28;20024;-68
2023/08/22 07:17:17;;;;;;;3.53;1.80;;;;;;;32.90;46.39;99748.16;5095291;28;20023;-68
2023/08/22 07:19:42;;;;;;;2.33;1.27;;;;;;;32.92;46.25;99751.56;5094891;28;20480;-67
2023/08/22 07:22:08;;;;;;;3.65;1.27;;;;;;;32.90;46.43;99745.44;5093902;28;20042;-68
2023/08/22 07:24:33;;;;;;;4.60;1.35;;;;;;;32.90;46.46;99746.31;5094988;28;20024;-68
2023/08/22 07:26:58;;;;;;;2.58;1.30;;;;;;;32.90;46.69;99749.00;5095078;28;20486;-68
2023/08/22 07:29:24;;;;;;;2.67;1.55;;;;;;;32.90;46.21;99754.41;5094852;28;20031;-68
2023/08/22 07:31:50;;;;;;;3.40;1.75;;;;;;;32.88;46.19;99745.59;5094959;28;20016;-68
2023/08/22 07:34:15;;;;;;;4.03;1.92;;;;;;;32.88;46.05;99751.00;5094954;28;20073;-69
2023/08/22 07:36:40;;;;;;;2.63;1.50;;;;;;;32.88;46.15;99751.00;5094937;28;20520;-68
2023/08/22 07:39:06;;;;;;;3.70;1.73;;;;;;;32.90;46.02;99750.84;5095008;28;20021;-68
2023/08/22 07:41:31;;;;;;;3.30;1.73;;;;;;;32.89;46.04;99758.13;5094763;28;20020;-68
2023/08/22 07:43:57;;;;;;;3.50;1.73;;;;;;;32.90;46.08;99754.41;5094374;28;20036;-68
2023/08/22 07:46:22;;;;;;;4.07;1.50;;;;;;;32.91;46.24;99757.94;5094752;28;20422;-67
2023/08/22 07:48:48;;;;;;;3.60;1.48;;;;;;;32.93;46.23;99754.06;5094857;28;20039;-68
2023/08/22 07:51:13;;;;;;;3.10;1.48;;;;;;;32.92;46.01;99755.09;5094511;28;20028;-67
2023/08/22 07:53:38;;;;;;;4.18;1.63;;;;;;;32.90;46.14;99754.41;5094527;28;20089;-68
2023/08/22 07:56:04;;;;;;;3.30;1.40;;;;;;;32.92;46.02;99756.97;5094622;28;20060;-68
2023/08/22 07:58:29;;;;;;;2.83;1.40;;;;;;;32.92;46.12;99757.78;5092818;28;20061;-68
2023/08/22 08:00:54;;;;;;;2.58;1.30;;;;;;;32.93;46.22;99754.06;5094415;28;20721;-68
2023/08/22 08:03:20;;;;;;;4.18;1.80;;;;;;;32.94;46.17;99766.56;5094265;28;20388;-73
2023/08/22 08:05:46;;;;;;;2.80;1.45;;;;;;;32.94;46.05;99761.16;5094423;28;20035;-70
2023/08/22 08:08:12;;;;;;;3.45;1.75;;;;;;;32.97;46.11;99759.19;5094312;28;20024;-68
2023/08/22 08:10:37;;;;;;;3.88;1.40;;;;;;;32.97;46.10;99760.00;5094373;28;20020;-67
2023/08/22 08:13:03;;;;;;;2.47;1.60;;;;;;;32.95;46.27;99757.47;5093859;28;20024;-68
2023/08/22 08:15:28;;;;;;;2.25;1.38;;;;;;;32.97;46.06;99753.78;5094043;28;20020;-67
2023/08/22 08:17:54;;;;;;;2.97;1.30;;;;;;;32.97;46.09;99753.78;5094174;28;20031;-68
2023/08/22 08:20:19;;;;;;;3.63;1.60;;;;;;;32.96;46.36;99747.53;5093877;28;20030;-68
2023/08/22 08:22:45;;;;;;;4.65;1.70;;;;;;;32.93;46.24;99745.13;5093711;28;20093;-68
2023/08/22 08:25:10;;;;;;;2.97;1.50;;;;;;;32.90;46.15;99740.91;5093789;28;20082;-68
2023/08/22 08:27:35;;;;;;;2.28;1.50;;;;;;;32.90;46.20;99743.59;5093656;28;20468;-68
2023/08/22 08:30:05;;;;;;;3.58;1.48;;;;;;;32.89;46.20;99741.91;5093860;28;20024;-68
2023/08/22 08:32:31;;;;;;;3.70;1.58;;;;;;;32.91;46.11;99748.00;5093543;28;20055;-69
2023/08/22 08:34:56;;;;;;;2.03;1.25;;;;;;;32.91;46.18;99750.69;5093670;28;20024;-68
2023/08/22 08:37:22;;;;;;;3.10;1.58;;;;;;;32.91;46.25;99739.03;5093581;28;20032;-68
2023/08/22 08:39:47;;;;;;;4.20;1.50;;;;;;;32.90;46.38;99748.16;5093692;28;20066;-68
2023/08/22 08:42:13;;;;;;;2.65;1.50;;;;;;;32.92;46.12;99746.97;5093108;28;20078;-68
2023/08/22 08:44:39;;;;;;;2.55;1.30;;;;;;;32.94;46.13;99738.72;5093397;28;20028;-67
2023/08/22 08:47:07;;;;;;;3.88;1.73;;;;;;;32.93;46.23;99747.84;5093422;28;20031;-68
2023/08/22 08:49:34;;;;;;;2.78;1.38;;;;;;;32.92;46.06;99738.88;5093266;28;20440;-69
2023/08/22 08:52:04;;;;;;;3.47;1.73;;;;;;;32.92;46.08;99741.56;5093455;28;20016;-68
2023/08/22 08:54:31;;;;;;;4.57;1.63;;;;;;;32.93;45.93;99745.13;5093341;28;20028;-69
2023/08/22 08:56:56;;;;;;;4.63;1.80;;;;;;;32.94;46.19;99744.94;5092880;28;20053;-69
2023/08/22 08:59:22;;;;;;;4.18;1.85;;;;;;;32.95;46.06;99741.25;5093435;28;20020;-68
2023/08/22 09:01:50;;;;;;;4.18;1.67;;;;;;;32.95;46.30;99746.66;5092968;28;20097;-67
2023/08/22 09:04:15;;;;;;;4.20;1.80;;;;;;;32.97;46.00;99737.56;5093198;28;20024;-68
2023/08/22 09:06:41;;;;;;;3.78;1.75;;;;;;;32.98;46.08;99733.84;5093124;28;20028;-68
2023/08/22 09:09:08;;;;;;;4.15;1.70;;;;;;;32.95;46.03;99741.25;5093079;28;20085;-68
2023/08/22 09:11:35;;;;;;;4.47;2.00;;;;;;;32.97;46.17;99733.00;5092834;28;20020;-68
2023/08/22 09:14:00;;;;;;;4.13;1.70;;;;;;;32.99;46.15;99724.72;5092878;28;20024;-68
2023/08/22 09:16:27;;;;;;;3.35;1.63;;;;;;;32.97;46.20;99732.16;5091743;28;20032;-68
2023/08/22 09:19:00;;;;;;;3.85;1.50;;;;;;;32.98;46.18;99728.44;5092875;28;20020;-68
2023/08/22 09:21:26;;;;;;;3.58;1.63;;;;;;;32.98;46.17;99723.91;5092842;28;20543;-69
2023/08/22 09:23:52;;;;;;;3.08;1.50;;;;;;;32.98;46.20;99728.44;5092533;28;20051;-67
2023/08/22 09:26:22;;;;;;;3.80;1.50;;;;;;;32.99;46.32;99730.13;5092853;28;20360;-69
2023/08/22 09:28:48;;;;;;;2.40;1.30;;;;;;;33.00;46.30;99721.00;5092714;28;20383;-69
2023/08/22 09:31:26;;;;;;;3.15;1.60;;;;;;;33.03;46.00;99721.50;5092629;28;20020;-67
2023/08/22 09:33:51;;;;;;;4.07;1.48;;;;;;;33.06;46.33;99720.34;5092549;28;20475;-68
2023/08/22 09:36:19;;;;;;;3.00;1.60;;;;;;;33.06;46.27;99717.63;5092165;28;20028;-68
2023/08/22 09:38:56;;;;;;;3.65;1.80;;;;;;;33.07;45.96;99713.94;5092363;28;20136;-68
2023/08/22 09:41:23;;;;;;;3.30;1.40;;;;;;;33.08;46.34;99718.31;5092404;28;20442;-68
2023/08/22 09:43:56;;;;;;;3.47;1.67;;;;;;;33.09;46.17;99714.59;5092349;28;20026;-68
2023/08/22 09:46:23;;;;;;;3.55;1.70;;;;;;;33.11;45.94;99720.66;5092517;28;20103;-69
2023/08/22 09:48:49;;;;;;;3.67;1.50;;;;;;;33.12;46.37;99714.25;5092463;28;20024;-67
2023/08/22 09:51:24;;;;;;;2.15;1.52;;;;;;;33.13;46.02;99710.56;5092522;28;20032;-68
2023/08/22 09:53:51;;;;;;;2.80;1.48;;;;;;;33.14;46.21;99709.53;5092049;28;20024;-68
2023/08/22 09:56:20;;;;;;;4.88;2.03;;;;;;;33.14;45.95;99714.94;5091127;28;20042;-69
2023/08/22 09:58:46;;;;;;;2.90;1.63;;;;;;;33.15;46.11;99713.06;5092403;28;20020;-68
2023/08/22 10:01:16;;;;;;;3.45;1.70;;;;;;;33.15;46.08;99713.94;5092073;28;20044;-68
2023/08/22 10:03:46;;;;;;;2.17;1.30;;;;;;;33.16;46.19;99712.91;5092160;28;20065;-68
2023/08/22 10:06:13;;;;;;;4.50;1.50;;;;;;;33.16;46.30;99710.19;5092184;28;20471;-69
2023/08/22 10:08:42;;;;;;;3.72;1.75;;;;;;;33.17;46.23;99705.66;5091867;28;20487;-68
2023/08/22 10:11:10;;;;;;;2.95;1.40;;;;;;;33.18;46.28;99713.59;5092216;28;20110;-67
2023/08/22 10:13:37;;;;;;;3.33;1.67;;;;;;;33.17;46.23;99703.78;5092083;28;20032;-66
2023/08/22 10:16:03;;;;;;;3.05;1.77;;;;;;;33.17;46.33;99701.06;5092170;28;20478;-68
2023/08/22 10:18:29;;;;;;;3.05;1.45;;;;;;;33.17;46.40;99706.47;5092102;28;20163;-68
2023/08/22 10:20:55;;;;;;;3.20;1.80;;;;;;;33.17;46.08;99695.66;5092075;28;20464;-68
2023/08/22 10:23:51;;;;;;;3.50;1.75;;;;;;;33.17;46.13;99694.84;5091536;28;20039;-67
2023/08/22 10:26:16;;;;;;;3.25;1.20;;;;;;;33.18;46.39;99691.97;5092409;28;20242;-68
2023/08/22 10:28:43;;;;;;;3.92;1.92;;;;;;;33.18;46.31;99691.97;5092107;28;20036;-68
2023/08/22 10:31:09;;;;;;;2.65;1.70;;;;;;;33.20;45.96;99684.53;5091935;28;20068;-69
2023/08/22 10:33:34;;;;;;;3.40;1.50;;;;;;;33.19;46.19;99682.84;5091993;28;20020;-68
2023/08/22 10:36:03;;;;;;;2.42;1.45;;;;;;;33.19;46.35;99680.16;5090714;28;20016;-67
2023/08/22 10:38:28;;;;;;;2.78;1.40;;;;;;;33.19;46.33;99677.44;5091725;28;20415;-67
2023/08/22 10:40:54;;;;;;;2.55;1.33;;;;;;;33.19;46.34;99680.16;5091801;28;20028;-68
2023/08/22 10:43:37;;;;;;;3.08;1.48;;;;;;;33.19;46.41;99677.44;5091885;28;20115;-68
2023/08/22 10:46:03;;;;;;;3.55;1.60;;;;;;;33.20;46.35;99673.72;5091926;28;20036;-68
2023/08/22 10:48:28;;;;;;;3.00;1.77;;;;;;;33.20;46.44;99679.13;5091146;28;20016;-69
2023/08/22 10:51:06;;;;;;;3.08;1.65;;;;;;;33.20;45.99;99679.13;5095404;28;20035;-69
2023/08/22 10:53:42;;;;;;;2.90;1.60;;;;;;;33.20;46.39;99676.41;5095643;28;20539;-68
2023/08/22 10:56:20;;;;;;;2.92;1.50;;;;;;;33.21;46.29;99670.00;5095652;28;20523;-67
2023/08/22 10:58:58;;;;;;;2.90;1.55;;;;;;;33.24;46.16;99673.34;5095566;28;20503;-69
2023/08/22 11:01:24;;;;;;;3.35;1.65;;;;;;;33.25;46.38;99670.50;5095351;28;20036;-69
2023/08/22 11:03:51;;;;;;;3.10;1.60;;;;;;;33.26;46.43;99668.66;5095377;28;20028;-68
2023/08/22 11:06:19;;;;;;;2.85;1.58;;;;;;;33.27;46.41;99667.63;5095226;28;20008;-68
2023/08/22 11:08:45;;;;;;;3.25;1.95;;;;;;;33.28;46.23;99669.31;5095464;28;20103;-67
2023/08/22 11:11:15;;;;;;;2.35;1.48;;;;;;;33.30;46.27;99661.84;5095368;28;20027;-68
2023/08/22 11:13:42;;;;;;;2.38;1.50;;;;;;;33.30;46.30;99667.28;5095272;28;20379;-67
2023/08/22 11:16:11;;;;;;;4.05;1.58;;;;;;;33.32;46.39;99660.69;5095515;28;20027;-68
2023/08/22 11:18:37;;;;;;;3.05;1.50;;;;;;;33.34;46.16;99655.09;5093978;28;20081;-68
2023/08/22 11:21:03;;;;;;;3.03;1.60;;;;;;;33.34;46.20;99649.69;5094852;28;20020;-67
2023/08/22 11:23:36;;;;;;;2.67;1.60;;;;;;;33.36;46.17;99644.97;5095142;28;20514;-68
2023/08/22 11:26:02;;;;;;;3.20;1.77;;;;;;;33.39;46.19;99644.63;5095039;28;20024;-67
2023/08/22 11:28:29;;;;;;;2.88;1.65;;;;;;;33.40;46.29;99640.91;5093711;28;20032;-68
2023/08/22 11:30:55;;;;;;;2.83;1.52;;;;;;;33.41;46.07;99642.56;5095144;28;20059;-68